EmailTwitter


Surface observations / United Kingdom / EGTE (03839)

Regions: Quebec | Canada | USA | Europe | France | UK | Elsewhere
Station
Display
Info & Location for EGTE (03839) | Help decoding METAR

Weather Conditions observed on 2018/08/18 at 15:50 UTC at EXETER AIRPORT, UK (EGTE)

Sky conditions: partly cloudy.

Temperature: 21.0 Celsius.

Dewpoint: 16.0 Celsius.

Relative Humidity: 73%

Humidex: 26.

Winds: Southwest at 9 km/h or 5 knots.

Mean Sea level Pressure: 102.10 kilopascals.

Horizontal visibility: 6.21 statute miles or 9.94 kilometers.

Height of the Ceiling: 762 metres ( 2500 feet ).

Coded METAR:

EGTE 181550Z 21005KT 9999 BKN025 21/16 Q1021=